VPCOH UAIT-OOMS
Flight info
| Callsign | VPCOH |
|---|---|
| Flight time | 3h 44m |
| Altitude | 38000 |
| Route | RELRU1C RELRU M168 MIKNO N143 RITAL/K0837F370 M741 ASLOK/K0843F380 Z554 CHARD/N0453F380 A118 LBA A847 NAZAR A647 MSD/N0460F390 B441 BJD/N0460F400 B441 NABOX/N0458F390 R654 NAGES M719 MESPO L430 ASLOM R462 VUSET |
| Aircraft | B738/M-SDE2E3FGHIRWXY/LB1 |
Departure
| Time | 2026-05-06 00:21 |
|---|---|
| Airport | Hazrat Sultan International Airport (UAIT) |
Arrival
| Time | 2026-05-06 04:05 |
|---|---|
| Airport | Muscat International Airport (OOMS) |
| Time | Latitude | Longitude | Altitude | Speed | Heading |
|---|---|---|---|---|---|
| 2026-05-06 00:05 | 43.31636 | 68.55016 | 919 ft | 0 kts | 325° |
| 2026-05-06 00:08 | 43.31630 | 68.55021 | 922 ft | 2 kts | 325° |
| 2026-05-06 00:08 | 43.31620 | 68.55030 | 911 ft | 2 kts | 325° |
| 2026-05-06 00:08 | 43.31611 | 68.55040 | 929 ft | 2 kts | 325° |
| 2026-05-06 00:09 | 43.31601 | 68.55049 | 921 ft | 2 kts | 325° |
| 2026-05-06 00:09 | 43.31591 | 68.55058 | 924 ft | 2 kts | 324° |
| 2026-05-06 00:09 | 43.31582 | 68.55067 | 924 ft | 2 kts | 324° |
| 2026-05-06 00:09 | 43.31572 | 68.55076 | 922 ft | 2 kts | 320° |
| 2026-05-06 00:10 | 43.31565 | 68.55087 | 922 ft | 2 kts | 293° |
| 2026-05-06 00:10 | 43.31561 | 68.55102 | 921 ft | 2 kts | 281° |
| 2026-05-06 00:10 | 43.31560 | 68.55117 | 923 ft | 2 kts | 262° |
| 2026-05-06 00:10 | 43.31562 | 68.55131 | 921 ft | 0 kts | 241° |
| 2026-05-06 00:14 | 43.31561 | 68.55130 | 927 ft | 1 kts | 241° |
| 2026-05-06 00:14 | 43.31545 | 68.55096 | 926 ft | 7 kts | 235° |
| 2026-05-06 00:14 | 43.31516 | 68.55039 | 919 ft | 7 kts | 236° |
| 2026-05-06 00:14 | 43.31488 | 68.54983 | 922 ft | 7 kts | 236° |
| 2026-05-06 00:15 | 43.31460 | 68.54928 | 919 ft | 7 kts | 236° |
| 2026-05-06 00:15 | 43.31434 | 68.54874 | 919 ft | 7 kts | 236° |
| 2026-05-06 00:15 | 43.31408 | 68.54820 | 919 ft | 7 kts | 236° |
| 2026-05-06 00:15 | 43.31373 | 68.54793 | 923 ft | 7 kts | 153° |
| 2026-05-06 00:16 | 43.31335 | 68.54836 | 920 ft | 8 kts | 140° |
| 2026-05-06 00:16 | 43.31280 | 68.54889 | 919 ft | 10 kts | 145° |
| 2026-05-06 00:16 | 43.31221 | 68.54943 | 918 ft | 10 kts | 146° |
| 2026-05-06 00:16 | 43.31163 | 68.54996 | 918 ft | 10 kts | 146° |
| 2026-05-06 00:17 | 43.31100 | 68.55008 | 918 ft | 10 kts | 213° |
| 2026-05-06 00:17 | 43.31057 | 68.54930 | 921 ft | 12 kts | 236° |
| 2026-05-06 00:17 | 43.31005 | 68.54824 | 916 ft | 15 kts | 236° |
| 2026-05-06 00:17 | 43.30945 | 68.54703 | 916 ft | 16 kts | 236° |
| 2026-05-06 00:18 | 43.30878 | 68.54566 | 916 ft | 18 kts | 236° |
| 2026-05-06 00:18 | 43.30806 | 68.54422 | 915 ft | 18 kts | 236° |
| 2026-05-06 00:18 | 43.30737 | 68.54279 | 915 ft | 18 kts | 237° |
| 2026-05-06 00:18 | 43.30666 | 68.54143 | 923 ft | 17 kts | 234° |
| 2026-05-06 00:19 | 43.30602 | 68.54013 | 921 ft | 16 kts | 236° |
| 2026-05-06 00:19 | 43.30539 | 68.53886 | 920 ft | 16 kts | 236° |
| 2026-05-06 00:19 | 43.30479 | 68.53764 | 923 ft | 15 kts | 236° |
| 2026-05-06 00:19 | 43.30421 | 68.53647 | 918 ft | 14 kts | 235° |
| 2026-05-06 00:20 | 43.30374 | 68.53543 | 918 ft | 11 kts | 256° |
| 2026-05-06 00:20 | 43.30372 | 68.53438 | 917 ft | 11 kts | 259° |
| 2026-05-06 00:20 | 43.30327 | 68.53365 | 916 ft | 11 kts | 191° |
| 2026-05-06 00:20 | 43.30318 | 68.53438 | 920 ft | 10 kts | 53° |
| 2026-05-06 00:21 | 43.30388 | 68.53589 | 921 ft | 46 kts | 57° |
| 2026-05-06 00:21 | 43.30727 | 68.54270 | 915 ft | 124 kts | 56° |
| 2026-05-06 00:21 | 43.31318 | 68.55493 | 1089 ft | 171 kts | 57° |
| 2026-05-06 00:21 | 43.31974 | 68.56847 | 2040 ft | 172 kts | 57° |
| 2026-05-06 00:22 | 43.32671 | 68.58242 | 2814 ft | 187 kts | 55° |
| 2026-05-06 00:22 | 43.33493 | 68.59854 | 3145 ft | 222 kts | 55° |
| 2026-05-06 00:22 | 43.34416 | 68.61673 | 3542 ft | 243 kts | 55° |
| 2026-05-06 00:22 | 43.35424 | 68.63675 | 4037 ft | 265 kts | 55° |
| 2026-05-06 00:23 | 43.36485 | 68.65795 | 4951 ft | 272 kts | 55° |
| 2026-05-06 00:23 | 43.37559 | 68.67948 | 6001 ft | 273 kts | 56° |
| 2026-05-06 00:23 | 43.38635 | 68.70108 | 6991 ft | 276 kts | 55° |
| 2026-05-06 00:23 | 43.39646 | 68.72379 | 7883 ft | 282 kts | 68° |
| 2026-05-06 00:24 | 43.39994 | 68.75036 | 8802 ft | 286 kts | 91° |
| 2026-05-06 00:24 | 43.39600 | 68.77737 | 9729 ft | 292 kts | 112° |
| 2026-05-06 00:24 | 43.38506 | 68.80100 | 10565 ft | 297 kts | 134° |
| 2026-05-06 00:24 | 43.36819 | 68.81749 | 11374 ft | 301 kts | 158° |
| 2026-05-06 00:25 | 43.34805 | 68.82322 | 12219 ft | 302 kts | 182° |
| 2026-05-06 00:25 | 43.32759 | 68.81734 | 13072 ft | 303 kts | 206° |
| 2026-05-06 00:25 | 43.31046 | 68.80061 | 13928 ft | 304 kts | 228° |
| 2026-05-06 00:25 | 43.29836 | 68.77697 | 14697 ft | 305 kts | 242° |
| 2026-05-06 00:26 | 43.28811 | 68.75118 | 15491 ft | 309 kts | 243° |
| 2026-05-06 00:26 | 43.27804 | 68.72498 | 16284 ft | 312 kts | 244° |
| 2026-05-06 00:26 | 43.27136 | 68.70740 | 16810 ft | 314 kts | 244° |
| 2026-05-06 00:26 | 43.26120 | 68.68056 | 17597 ft | 318 kts | 245° |
| 2026-05-06 00:27 | 43.25094 | 68.65347 | 18366 ft | 322 kts | 245° |
| 2026-05-06 00:27 | 43.24054 | 68.62604 | 19036 ft | 325 kts | 245° |
| 2026-05-06 00:27 | 43.23005 | 68.59846 | 19722 ft | 328 kts | 245° |
| 2026-05-06 00:27 | 43.21942 | 68.57057 | 20399 ft | 331 kts | 245° |
| 2026-05-06 00:28 | 43.20867 | 68.54247 | 21062 ft | 335 kts | 243° |
| 2026-05-06 00:28 | 43.19410 | 68.51713 | 21690 ft | 345 kts | 224° |
| 2026-05-06 00:28 | 43.17354 | 68.49904 | 21887 ft | 369 kts | 207° |
| 2026-05-06 00:28 | 43.14935 | 68.48487 | 22030 ft | 388 kts | 205° |
| 2026-05-06 00:29 | 43.12366 | 68.47077 | 22149 ft | 405 kts | 204° |
| 2026-05-06 00:29 | 43.09696 | 68.45628 | 22255 ft | 421 kts | 204° |
| 2026-05-06 00:29 | 43.06928 | 68.44112 | 22384 ft | 434 kts | 205° |
| 2026-05-06 00:29 | 43.04100 | 68.42545 | 22730 ft | 441 kts | 205° |
| 2026-05-06 00:30 | 43.01248 | 68.40951 | 23266 ft | 443 kts | 205° |
| 2026-05-06 00:30 | 42.98390 | 68.39345 | 23771 ft | 445 kts | 205° |
| 2026-05-06 00:30 | 42.95514 | 68.37725 | 24161 ft | 448 kts | 205° |
| 2026-05-06 00:30 | 42.92618 | 68.36094 | 24533 ft | 452 kts | 205° |
| 2026-05-06 00:31 | 42.89742 | 68.34475 | 24904 ft | 455 kts | 205° |
| 2026-05-06 00:31 | 42.86793 | 68.32818 | 25294 ft | 458 kts | 205° |
| 2026-05-06 00:31 | 42.83836 | 68.31161 | 25676 ft | 461 kts | 205° |
| 2026-05-06 00:31 | 42.80729 | 68.29909 | 26009 ft | 470 kts | 191° |
| 2026-05-06 00:32 | 42.77467 | 68.29446 | 26400 ft | 473 kts | 187° |
| 2026-05-06 00:32 | 42.74165 | 68.29087 | 26752 ft | 477 kts | 187° |
| 2026-05-06 00:32 | 42.70890 | 68.28739 | 27065 ft | 480 kts | 187° |
| 2026-05-06 00:32 | 42.67551 | 68.28360 | 27388 ft | 483 kts | 187° |
| 2026-05-06 00:33 | 42.64193 | 68.27951 | 27719 ft | 485 kts | 188° |
| 2026-05-06 00:33 | 42.60826 | 68.27520 | 28032 ft | 487 kts | 188° |
| 2026-05-06 00:33 | 42.57432 | 68.27075 | 28361 ft | 490 kts | 188° |
| 2026-05-06 00:33 | 42.54031 | 68.26626 | 28663 ft | 493 kts | 188° |
| 2026-05-06 00:34 | 42.50605 | 68.26175 | 28962 ft | 495 kts | 188° |
| 2026-05-06 00:34 | 42.47204 | 68.25731 | 29302 ft | 496 kts | 188° |
| 2026-05-06 00:34 | 42.43724 | 68.25279 | 29772 ft | 495 kts | 188° |
| 2026-05-06 00:34 | 42.40347 | 68.24841 | 30235 ft | 493 kts | 188° |
| 2026-05-06 00:35 | 42.36937 | 68.24396 | 30620 ft | 492 kts | 188° |
| 2026-05-06 00:35 | 42.33521 | 68.23947 | 30964 ft | 492 kts | 188° |
| 2026-05-06 00:35 | 42.30112 | 68.23499 | 31296 ft | 492 kts | 188° |
| 2026-05-06 00:35 | 42.26699 | 68.23050 | 31666 ft | 492 kts | 188° |
| 2026-05-06 00:36 | 42.23294 | 68.22604 | 32040 ft | 491 kts | 188° |
| 2026-05-06 00:36 | 42.19884 | 68.22158 | 32373 ft | 491 kts | 189° |
| 2026-05-06 00:36 | 42.16493 | 68.21715 | 32719 ft | 491 kts | 189° |
| 2026-05-06 00:36 | 42.13127 | 68.21275 | 33056 ft | 490 kts | 189° |
| 2026-05-06 00:37 | 42.09696 | 68.20802 | 33403 ft | 488 kts | 193° |
| 2026-05-06 00:37 | 42.06484 | 68.19510 | 33660 ft | 478 kts | 211° |
| 2026-05-06 00:37 | 42.03738 | 68.17099 | 34020 ft | 466 kts | 226° |
| 2026-05-06 00:37 | 42.01517 | 68.14002 | 34362 ft | 455 kts | 239° |
| 2026-05-06 00:38 | 41.99946 | 68.10436 | 34650 ft | 445 kts | 250° |
| 2026-05-06 00:38 | 41.98663 | 68.06663 | 34926 ft | 443 kts | 251° |
| 2026-05-06 00:38 | 41.97424 | 68.02868 | 35172 ft | 443 kts | 251° |
| 2026-05-06 00:38 | 41.96187 | 67.99058 | 35451 ft | 443 kts | 251° |
| 2026-05-06 00:39 | 41.94943 | 67.95275 | 35765 ft | 442 kts | 251° |
| 2026-05-06 00:39 | 41.93691 | 67.91515 | 36053 ft | 441 kts | 250° |
| 2026-05-06 00:39 | 41.92426 | 67.87757 | 36317 ft | 441 kts | 250° |
| 2026-05-06 00:39 | 41.91172 | 67.84062 | 36588 ft | 440 kts | 250° |
| 2026-05-06 00:40 | 41.89899 | 67.80324 | 36873 ft | 439 kts | 250° |
| 2026-05-06 00:40 | 41.88629 | 67.76606 | 37149 ft | 438 kts | 250° |
| 2026-05-06 00:40 | 41.87355 | 67.72881 | 37423 ft | 437 kts | 250° |
| 2026-05-06 00:40 | 41.86086 | 67.69173 | 37694 ft | 437 kts | 250° |
| 2026-05-06 00:41 | 41.84818 | 67.65471 | 37947 ft | 436 kts | 250° |
| 2026-05-06 00:41 | 41.82273 | 67.58054 | 38016 ft | 438 kts | 250° |
| 2026-05-06 00:42 | 41.79744 | 67.50707 | 38021 ft | 436 kts | 250° |
| 2026-05-06 00:42 | 41.77204 | 67.43345 | 38020 ft | 433 kts | 250° |
| 2026-05-06 00:43 | 41.74677 | 67.36033 | 38015 ft | 432 kts | 250° |
| 2026-05-06 00:43 | 41.72121 | 67.28762 | 38003 ft | 433 kts | 244° |
| 2026-05-06 00:43 | 41.70239 | 67.25576 | 38029 ft | 443 kts | 226° |
| 2026-05-06 00:44 | 41.67672 | 67.23208 | 38002 ft | 455 kts | 210° |
| 2026-05-06 00:44 | 41.64641 | 67.21864 | 38020 ft | 464 kts | 194° |
| 2026-05-06 00:44 | 41.61392 | 67.21697 | 38010 ft | 473 kts | 176° |
| 2026-05-06 00:45 | 41.54893 | 67.23102 | 38021 ft | 478 kts | 173° |
| 2026-05-06 00:45 | 41.48338 | 67.24701 | 38013 ft | 480 kts | 173° |
| 2026-05-06 00:46 | 41.41729 | 67.26207 | 38016 ft | 482 kts | 174° |
| 2026-05-06 00:46 | 41.35088 | 67.27654 | 38016 ft | 484 kts | 174° |
| 2026-05-06 00:47 | 41.28473 | 67.29086 | 38013 ft | 485 kts | 174° |
| 2026-05-06 00:47 | 41.21797 | 67.30536 | 38016 ft | 486 kts | 174° |
| 2026-05-06 00:48 | 41.15115 | 67.31700 | 37988 ft | 479 kts | 187° |
| 2026-05-06 00:48 | 41.11887 | 67.30914 | 38024 ft | 467 kts | 204° |
| 2026-05-06 00:48 | 41.09000 | 67.29063 | 38025 ft | 457 kts | 218° |
| 2026-05-06 00:48 | 41.06533 | 67.26471 | 38008 ft | 448 kts | 231° |
| 2026-05-06 00:49 | 41.04632 | 67.23267 | 38029 ft | 440 kts | 241° |
| 2026-05-06 00:49 | 41.01319 | 67.16459 | 38011 ft | 439 kts | 243° |
| 2026-05-06 00:50 | 40.98042 | 67.09623 | 38005 ft | 440 kts | 242° |
| 2026-05-06 00:50 | 40.94737 | 67.02868 | 38004 ft | 440 kts | 242° |
| 2026-05-06 00:51 | 40.91382 | 66.96092 | 38011 ft | 440 kts | 242° |
| 2026-05-06 00:51 | 40.88020 | 66.89328 | 38014 ft | 440 kts | 241° |
| 2026-05-06 00:52 | 40.84658 | 66.82577 | 38014 ft | 439 kts | 241° |
| 2026-05-06 00:52 | 40.81295 | 66.75835 | 38021 ft | 439 kts | 241° |
| 2026-05-06 00:53 | 40.77953 | 66.69148 | 38023 ft | 439 kts | 241° |
| 2026-05-06 00:53 | 40.74590 | 66.62431 | 38024 ft | 438 kts | 241° |
| 2026-05-06 00:54 | 40.71307 | 66.55678 | 38034 ft | 435 kts | 244° |
| 2026-05-06 00:54 | 40.68386 | 66.48702 | 38032 ft | 434 kts | 246° |
| 2026-05-06 00:55 | 40.65525 | 66.41718 | 38035 ft | 433 kts | 246° |
| 2026-05-06 00:55 | 40.62652 | 66.34787 | 38034 ft | 433 kts | 245° |
| 2026-05-06 00:56 | 40.59742 | 66.27833 | 38039 ft | 432 kts | 245° |
| 2026-05-06 00:56 | 40.56830 | 66.20904 | 38041 ft | 432 kts | 245° |
| 2026-05-06 00:57 | 40.53937 | 66.14035 | 38043 ft | 431 kts | 245° |
| 2026-05-06 00:57 | 40.51037 | 66.07162 | 38041 ft | 430 kts | 245° |
| 2026-05-06 00:58 | 40.48129 | 66.00286 | 38043 ft | 430 kts | 245° |
| 2026-05-06 00:58 | 40.45219 | 65.93420 | 38042 ft | 430 kts | 245° |
| 2026-05-06 00:59 | 40.42328 | 65.86611 | 38038 ft | 429 kts | 245° |
| 2026-05-06 00:59 | 40.39413 | 65.79764 | 38053 ft | 429 kts | 245° |
| 2026-05-06 01:00 | 40.36435 | 65.72967 | 38039 ft | 430 kts | 243° |
| 2026-05-06 01:00 | 40.33388 | 65.66199 | 38031 ft | 431 kts | 243° |
| 2026-05-06 01:01 | 40.30362 | 65.59475 | 38024 ft | 431 kts | 243° |
| 2026-05-06 01:01 | 40.27318 | 65.52700 | 38022 ft | 431 kts | 243° |
| 2026-05-06 01:02 | 40.24272 | 65.45928 | 38013 ft | 432 kts | 243° |
| 2026-05-06 01:02 | 40.21216 | 65.39147 | 38000 ft | 432 kts | 243° |
| 2026-05-06 01:03 | 40.18158 | 65.32377 | 38001 ft | 431 kts | 243° |
| 2026-05-06 01:03 | 40.15123 | 65.25672 | 37994 ft | 431 kts | 243° |
| 2026-05-06 01:04 | 40.12062 | 65.18924 | 37989 ft | 431 kts | 243° |
| 2026-05-06 01:04 | 40.08912 | 65.12263 | 37995 ft | 431 kts | 241° |
| 2026-05-06 01:05 | 40.05659 | 65.05681 | 37998 ft | 431 kts | 241° |
| 2026-05-06 01:05 | 40.02443 | 64.99123 | 37991 ft | 431 kts | 241° |
| 2026-05-06 01:06 | 39.99219 | 64.92531 | 37991 ft | 430 kts | 241° |
| 2026-05-06 01:06 | 39.96019 | 64.85983 | 37979 ft | 430 kts | 241° |
| 2026-05-06 01:07 | 39.92813 | 64.79436 | 37948 ft | 418 kts | 241° |
| 2026-05-06 01:07 | 39.91275 | 64.76307 | 37954 ft | 403 kts | 241° |
| 2026-05-06 01:07 | 39.89776 | 64.73257 | 37957 ft | 397 kts | 241° |
| 2026-05-06 01:08 | 39.86826 | 64.67246 | 37979 ft | 396 kts | 241° |
| 2026-05-06 01:08 | 39.83860 | 64.61218 | 37953 ft | 392 kts | 241° |
| 2026-05-06 01:09 | 39.80932 | 64.55280 | 37972 ft | 389 kts | 241° |
| 2026-05-06 01:09 | 39.78007 | 64.49364 | 37953 ft | 385 kts | 241° |
| 2026-05-06 01:09 | 39.76745 | 64.46383 | 37944 ft | 368 kts | 253° |
| 2026-05-06 01:10 | 39.76166 | 64.43223 | 37971 ft | 362 kts | 266° |
| 2026-05-06 01:10 | 39.76154 | 64.39950 | 37976 ft | 363 kts | 277° |
| 2026-05-06 01:10 | 39.76691 | 64.36736 | 37962 ft | 367 kts | 289° |
| 2026-05-06 01:10 | 39.77810 | 64.33739 | 37969 ft | 371 kts | 303° |
| 2026-05-06 01:11 | 39.79510 | 64.31168 | 37972 ft | 377 kts | 317° |
| 2026-05-06 01:11 | 39.81696 | 64.29248 | 37965 ft | 384 kts | 331° |
| 2026-05-06 01:11 | 39.84242 | 64.28123 | 37964 ft | 392 kts | 346° |
| 2026-05-06 01:11 | 39.86964 | 64.27912 | 37966 ft | 401 kts | 1° |
| 2026-05-06 01:12 | 39.89718 | 64.28690 | 37968 ft | 411 kts | 17° |
| 2026-05-06 01:12 | 39.92275 | 64.30448 | 37968 ft | 420 kts | 32° |
| 2026-05-06 01:12 | 39.94433 | 64.33043 | 37965 ft | 428 kts | 49° |
| 2026-05-06 01:13 | 39.97725 | 64.39569 | 37980 ft | 432 kts | 55° |
| 2026-05-06 01:13 | 40.00912 | 64.46220 | 37957 ft | 431 kts | 54° |
| 2026-05-06 01:14 | 40.04962 | 64.56551 | 37988 ft | 434 kts | 82° |
| 2026-05-06 01:14 | 40.04935 | 64.60486 | 37957 ft | 435 kts | 100° |
| 2026-05-06 01:14 | 40.04043 | 64.64247 | 37980 ft | 433 kts | 118° |
| 2026-05-06 01:15 | 40.03023 | 64.66465 | 37958 ft | 429 kts | 130° |
| 2026-05-06 01:15 | 40.00941 | 64.69197 | 37994 ft | 422 kts | 148° |
| 2026-05-06 01:15 | 39.97504 | 64.71369 | 37969 ft | 410 kts | 171° |
| 2026-05-06 01:15 | 39.94714 | 64.71808 | 37979 ft | 400 kts | 188° |
| 2026-05-06 01:16 | 39.90320 | 64.70383 | 37974 ft | 390 kts | 213° |
| 2026-05-06 01:16 | 39.88040 | 64.68501 | 37964 ft | 388 kts | 224° |
| 2026-05-06 01:16 | 39.86180 | 64.65996 | 37976 ft | 382 kts | 238° |
| 2026-05-06 01:17 | 39.83290 | 64.60203 | 37966 ft | 382 kts | 242° |
| 2026-05-06 01:17 | 39.80464 | 64.54310 | 37957 ft | 384 kts | 241° |
| 2026-05-06 01:18 | 39.77584 | 64.48498 | 37964 ft | 384 kts | 240° |
| 2026-05-06 01:18 | 39.74003 | 64.43204 | 37983 ft | 396 kts | 227° |
| 2026-05-06 01:19 | 39.69926 | 64.38275 | 37972 ft | 402 kts | 227° |
| 2026-05-06 01:19 | 39.65858 | 64.33256 | 37970 ft | 406 kts | 228° |
| 2026-05-06 01:20 | 39.61796 | 64.28095 | 37971 ft | 416 kts | 229° |
| 2026-05-06 01:20 | 39.57621 | 64.22740 | 37961 ft | 425 kts | 229° |
| 2026-05-06 01:21 | 39.53367 | 64.17286 | 37961 ft | 434 kts | 228° |
| 2026-05-06 01:21 | 39.49067 | 64.11785 | 37945 ft | 438 kts | 228° |
| 2026-05-06 01:22 | 39.44762 | 64.06296 | 37917 ft | 424 kts | 228° |
| 2026-05-06 01:22 | 39.40644 | 64.01055 | 37932 ft | 412 kts | 229° |
| 2026-05-06 01:23 | 39.36553 | 63.95844 | 37935 ft | 412 kts | 229° |
| 2026-05-06 01:23 | 39.32471 | 63.90654 | 37936 ft | 412 kts | 229° |
| 2026-05-06 01:24 | 39.28376 | 63.85462 | 37921 ft | 412 kts | 229° |
| 2026-05-06 01:24 | 39.23918 | 63.80827 | 37918 ft | 420 kts | 213° |
| 2026-05-06 01:25 | 39.18725 | 63.77320 | 37911 ft | 422 kts | 212° |
| 2026-05-06 01:25 | 39.13494 | 63.73852 | 37911 ft | 422 kts | 212° |
| 2026-05-06 01:26 | 39.08276 | 63.70341 | 37910 ft | 423 kts | 212° |
| 2026-05-06 01:26 | 39.03088 | 63.66832 | 37912 ft | 423 kts | 212° |
| 2026-05-06 01:27 | 38.97870 | 63.63307 | 37914 ft | 424 kts | 212° |
| 2026-05-06 01:27 | 38.92673 | 63.59692 | 37904 ft | 421 kts | 218° |
| 2026-05-06 01:28 | 38.88347 | 63.54793 | 37924 ft | 412 kts | 232° |
| 2026-05-06 01:28 | 38.84533 | 63.49292 | 37909 ft | 413 kts | 233° |
| 2026-05-06 01:29 | 38.80716 | 63.43784 | 37909 ft | 413 kts | 232° |
| 2026-05-06 01:29 | 38.76873 | 63.38296 | 37909 ft | 413 kts | 232° |
| 2026-05-06 01:30 | 38.73041 | 63.32857 | 37907 ft | 413 kts | 232° |
| 2026-05-06 01:30 | 38.69172 | 63.27381 | 37908 ft | 413 kts | 232° |
| 2026-05-06 01:31 | 38.65338 | 63.21964 | 37907 ft | 413 kts | 232° |
| 2026-05-06 01:31 | 38.61478 | 63.16519 | 37903 ft | 412 kts | 232° |
| 2026-05-06 01:32 | 38.57622 | 63.11088 | 37898 ft | 412 kts | 232° |
| 2026-05-06 01:32 | 38.53768 | 63.05670 | 37903 ft | 411 kts | 232° |
| 2026-05-06 01:33 | 38.49946 | 63.00306 | 37903 ft | 410 kts | 232° |
| 2026-05-06 01:33 | 38.46097 | 62.94914 | 37891 ft | 410 kts | 232° |
| 2026-05-06 01:34 | 38.42253 | 62.89537 | 37884 ft | 409 kts | 232° |
| 2026-05-06 01:34 | 38.38411 | 62.84172 | 37891 ft | 409 kts | 232° |
| 2026-05-06 01:35 | 38.34593 | 62.78850 | 37892 ft | 408 kts | 232° |
| 2026-05-06 01:35 | 38.30763 | 62.73519 | 37891 ft | 407 kts | 232° |
| 2026-05-06 01:36 | 38.26933 | 62.68198 | 37884 ft | 407 kts | 232° |
| 2026-05-06 01:36 | 38.23107 | 62.62891 | 37885 ft | 407 kts | 232° |
| 2026-05-06 01:37 | 38.19280 | 62.57591 | 37882 ft | 406 kts | 232° |
| 2026-05-06 01:37 | 38.15479 | 62.52334 | 37881 ft | 406 kts | 232° |
| 2026-05-06 01:38 | 38.11609 | 62.47096 | 37875 ft | 408 kts | 229° |
| 2026-05-06 01:38 | 38.07463 | 62.42152 | 37878 ft | 409 kts | 227° |
| 2026-05-06 01:39 | 38.03263 | 62.37279 | 37876 ft | 409 kts | 227° |
| 2026-05-06 01:39 | 37.99074 | 62.32382 | 37872 ft | 409 kts | 228° |
| 2026-05-06 01:40 | 37.94926 | 62.27508 | 37876 ft | 409 kts | 228° |
| 2026-05-06 01:40 | 37.90743 | 62.22588 | 37873 ft | 409 kts | 228° |
| 2026-05-06 01:41 | 37.86588 | 62.17709 | 37877 ft | 409 kts | 228° |
| 2026-05-06 01:41 | 37.82402 | 62.12802 | 37870 ft | 409 kts | 228° |
| 2026-05-06 01:42 | 37.78214 | 62.07902 | 37876 ft | 409 kts | 228° |
| 2026-05-06 01:42 | 37.74036 | 62.03020 | 37879 ft | 409 kts | 227° |
| 2026-05-06 01:43 | 37.69879 | 61.98171 | 37880 ft | 409 kts | 227° |
| 2026-05-06 01:43 | 37.65701 | 61.93303 | 37880 ft | 409 kts | 227° |
| 2026-05-06 01:44 | 37.61600 | 61.88347 | 37879 ft | 405 kts | 234° |
| 2026-05-06 01:44 | 37.58167 | 61.82762 | 37885 ft | 402 kts | 237° |
| 2026-05-06 01:45 | 37.54776 | 61.77153 | 37881 ft | 402 kts | 237° |
| 2026-05-06 01:45 | 37.51364 | 61.71556 | 37874 ft | 402 kts | 237° |
| 2026-05-06 01:46 | 37.47962 | 61.66009 | 37873 ft | 402 kts | 237° |
| 2026-05-06 01:46 | 37.44539 | 61.60444 | 37864 ft | 402 kts | 237° |
| 2026-05-06 01:47 | 37.41110 | 61.54880 | 37857 ft | 401 kts | 237° |
| 2026-05-06 01:47 | 37.37686 | 61.49333 | 37855 ft | 401 kts | 237° |
| 2026-05-06 01:48 | 37.34256 | 61.43784 | 37858 ft | 401 kts | 237° |
| 2026-05-06 01:48 | 37.30850 | 61.38284 | 37857 ft | 400 kts | 237° |
| 2026-05-06 01:49 | 37.27429 | 61.32767 | 37858 ft | 400 kts | 237° |
| 2026-05-06 01:49 | 37.24002 | 61.27248 | 37857 ft | 399 kts | 237° |
| 2026-05-06 01:50 | 37.20607 | 61.21792 | 37856 ft | 398 kts | 237° |
| 2026-05-06 01:50 | 37.17228 | 61.16279 | 37858 ft | 397 kts | 237° |
| 2026-05-06 01:51 | 37.13987 | 61.10958 | 37857 ft | 396 kts | 237° |
| 2026-05-06 01:51 | 37.10660 | 61.05513 | 37858 ft | 396 kts | 237° |
| 2026-05-06 01:52 | 37.07307 | 61.00040 | 37860 ft | 395 kts | 237° |
| 2026-05-06 01:52 | 37.03927 | 60.94530 | 37868 ft | 403 kts | 237° |
| 2026-05-06 01:53 | 37.00467 | 60.88901 | 37865 ft | 413 kts | 237° |
| 2026-05-06 01:53 | 36.96921 | 60.83141 | 37869 ft | 420 kts | 237° |
| 2026-05-06 01:54 | 36.93389 | 60.77348 | 37856 ft | 422 kts | 237° |
| 2026-05-06 01:54 | 36.89836 | 60.71505 | 37865 ft | 422 kts | 237° |
| 2026-05-06 01:55 | 36.86279 | 60.65672 | 37870 ft | 418 kts | 237° |
| 2026-05-06 01:55 | 36.84535 | 60.62822 | 37853 ft | 405 kts | 237° |
| 2026-05-06 01:55 | 36.82871 | 60.60108 | 37859 ft | 394 kts | 237° |
| 2026-05-06 01:56 | 36.79564 | 60.54703 | 37887 ft | 392 kts | 237° |
| 2026-05-06 01:56 | 36.76251 | 60.49292 | 37894 ft | 392 kts | 237° |
| 2026-05-06 01:57 | 36.72924 | 60.43871 | 37896 ft | 393 kts | 237° |
| 2026-05-06 01:57 | 36.69594 | 60.38457 | 37906 ft | 394 kts | 237° |
| 2026-05-06 01:58 | 36.66258 | 60.33042 | 37917 ft | 394 kts | 237° |
| 2026-05-06 01:58 | 36.62892 | 60.27650 | 37921 ft | 395 kts | 236° |
| 2026-05-06 01:59 | 36.59515 | 60.22305 | 37940 ft | 395 kts | 236° |
| 2026-05-06 01:59 | 36.56094 | 60.16892 | 37963 ft | 402 kts | 236° |
| 2026-05-06 02:00 | 36.52593 | 60.11351 | 37975 ft | 411 kts | 236° |
| 2026-05-06 02:00 | 36.49022 | 60.05707 | 37996 ft | 418 kts | 236° |
| 2026-05-06 02:01 | 36.45410 | 60.00011 | 37988 ft | 421 kts | 236° |
| 2026-05-06 02:01 | 36.41794 | 59.94321 | 38011 ft | 423 kts | 236° |
| 2026-05-06 02:02 | 36.38150 | 59.88595 | 38026 ft | 422 kts | 236° |
| 2026-05-06 02:02 | 36.34509 | 59.82880 | 38028 ft | 421 kts | 236° |
| 2026-05-06 02:03 | 36.30885 | 59.77200 | 38029 ft | 419 kts | 236° |
| 2026-05-06 02:03 | 36.27295 | 59.71583 | 38038 ft | 416 kts | 236° |
| 2026-05-06 02:04 | 36.23089 | 59.66627 | 38050 ft | 428 kts | 216° |
| 2026-05-06 02:04 | 36.17425 | 59.64052 | 38030 ft | 446 kts | 195° |
| 2026-05-06 02:05 | 36.11262 | 59.63181 | 38035 ft | 448 kts | 193° |
| 2026-05-06 02:05 | 36.05043 | 59.62410 | 38027 ft | 447 kts | 193° |
| 2026-05-06 02:06 | 35.98844 | 59.61578 | 38026 ft | 447 kts | 193° |
| 2026-05-06 02:06 | 35.92705 | 59.60710 | 38030 ft | 446 kts | 194° |
| 2026-05-06 02:07 | 35.86535 | 59.59826 | 38043 ft | 446 kts | 194° |
| 2026-05-06 02:07 | 35.80359 | 59.58943 | 38048 ft | 447 kts | 194° |
| 2026-05-06 02:08 | 35.74170 | 59.58062 | 38048 ft | 447 kts | 194° |
| 2026-05-06 02:08 | 35.68026 | 59.57189 | 38058 ft | 448 kts | 194° |
| 2026-05-06 02:09 | 35.61817 | 59.56308 | 38063 ft | 449 kts | 194° |
| 2026-05-06 02:09 | 35.55598 | 59.55428 | 38069 ft | 450 kts | 194° |
| 2026-05-06 02:10 | 35.49356 | 59.54546 | 38052 ft | 450 kts | 194° |
| 2026-05-06 02:10 | 35.43174 | 59.53674 | 38069 ft | 450 kts | 194° |
| 2026-05-06 02:11 | 35.36950 | 59.52797 | 38071 ft | 450 kts | 194° |
| 2026-05-06 02:11 | 35.30715 | 59.51919 | 38068 ft | 451 kts | 194° |
| 2026-05-06 02:12 | 35.24475 | 59.51043 | 38063 ft | 451 kts | 194° |
| 2026-05-06 02:12 | 35.18251 | 59.50170 | 38050 ft | 450 kts | 194° |
| 2026-05-06 02:13 | 35.13078 | 59.49446 | 38045 ft | 450 kts | 194° |
| 2026-05-06 02:13 | 35.05843 | 59.48434 | 38038 ft | 450 kts | 194° |
| 2026-05-06 02:14 | 34.99636 | 59.47567 | 38026 ft | 449 kts | 194° |
| 2026-05-06 02:14 | 34.94466 | 59.46846 | 38030 ft | 449 kts | 194° |
| 2026-05-06 02:15 | 34.88259 | 59.45980 | 38019 ft | 448 kts | 194° |
| 2026-05-06 02:15 | 34.82052 | 59.45115 | 38095 ft | 451 kts | 194° |
| 2026-05-06 02:16 | 34.78935 | 59.44681 | 38360 ft | 450 kts | 194° |
| 2026-05-06 02:16 | 34.75826 | 59.44252 | 38726 ft | 447 kts | 195° |
| 2026-05-06 02:16 | 34.72740 | 59.43827 | 38973 ft | 445 kts | 195° |
| 2026-05-06 02:16 | 34.69687 | 59.43404 | 38980 ft | 448 kts | 195° |
| 2026-05-06 02:17 | 34.63463 | 59.42538 | 38997 ft | 449 kts | 195° |
| 2026-05-06 02:17 | 34.57273 | 59.41685 | 38991 ft | 446 kts | 195° |
| 2026-05-06 02:18 | 34.51112 | 59.40837 | 38994 ft | 444 kts | 195° |
| 2026-05-06 02:18 | 34.44983 | 59.39992 | 39000 ft | 442 kts | 195° |
| 2026-05-06 02:19 | 34.38869 | 59.39149 | 38999 ft | 442 kts | 195° |
| 2026-05-06 02:19 | 34.32752 | 59.38306 | 39009 ft | 443 kts | 195° |
| 2026-05-06 02:20 | 34.23566 | 59.37044 | 39019 ft | 446 kts | 195° |
| 2026-05-06 02:21 | 34.17383 | 59.36197 | 39027 ft | 448 kts | 195° |
| 2026-05-06 02:21 | 34.11166 | 59.35347 | 39037 ft | 450 kts | 195° |
| 2026-05-06 02:22 | 34.04972 | 59.34501 | 39045 ft | 452 kts | 195° |
| 2026-05-06 02:22 | 33.98703 | 59.33647 | 39047 ft | 454 kts | 195° |
| 2026-05-06 02:23 | 33.92420 | 59.32789 | 39058 ft | 454 kts | 195° |
| 2026-05-06 02:23 | 33.86125 | 59.31936 | 39060 ft | 454 kts | 195° |
| 2026-05-06 02:24 | 33.79873 | 59.31089 | 39066 ft | 455 kts | 195° |
| 2026-05-06 02:24 | 33.73582 | 59.30238 | 39091 ft | 455 kts | 196° |
| 2026-05-06 02:25 | 33.67278 | 59.29391 | 39085 ft | 454 kts | 196° |
| 2026-05-06 02:25 | 33.60985 | 59.28546 | 39077 ft | 454 kts | 196° |
| 2026-05-06 02:26 | 33.54741 | 59.27708 | 39092 ft | 453 kts | 196° |
| 2026-05-06 02:26 | 33.48479 | 59.26869 | 39083 ft | 448 kts | 196° |
| 2026-05-06 02:26 | 33.45415 | 59.26466 | 39077 ft | 436 kts | 196° |
| 2026-05-06 02:27 | 33.42417 | 59.26068 | 39085 ft | 432 kts | 197° |
| 2026-05-06 02:27 | 33.36472 | 59.25264 | 39091 ft | 428 kts | 197° |
| 2026-05-06 02:28 | 33.30567 | 59.24473 | 39103 ft | 425 kts | 197° |
| 2026-05-06 02:28 | 33.24723 | 59.23690 | 39109 ft | 424 kts | 197° |
| 2026-05-06 02:29 | 33.18858 | 59.22903 | 39118 ft | 424 kts | 197° |
| 2026-05-06 02:29 | 33.12971 | 59.22114 | 39133 ft | 425 kts | 197° |
| 2026-05-06 02:30 | 33.07117 | 59.21331 | 39131 ft | 427 kts | 197° |
| 2026-05-06 02:30 | 33.01206 | 59.20542 | 39137 ft | 428 kts | 197° |
| 2026-05-06 02:31 | 32.95277 | 59.19727 | 39135 ft | 427 kts | 198° |
| 2026-05-06 02:31 | 32.89395 | 59.18725 | 39136 ft | 427 kts | 199° |
| 2026-05-06 02:32 | 32.83513 | 59.17678 | 39137 ft | 428 kts | 200° |
| 2026-05-06 02:32 | 32.77661 | 59.16657 | 39138 ft | 428 kts | 199° |
| 2026-05-06 02:33 | 32.71751 | 59.15640 | 39134 ft | 429 kts | 199° |
| 2026-05-06 02:33 | 32.69796 | 59.15304 | 39122 ft | 429 kts | 199° |
| 2026-05-06 02:34 | 32.59911 | 59.13615 | 39101 ft | 429 kts | 199° |
| 2026-05-06 02:34 | 32.54028 | 59.12612 | 39089 ft | 429 kts | 199° |
| 2026-05-06 02:35 | 32.48114 | 59.11605 | 39084 ft | 428 kts | 199° |
| 2026-05-06 02:35 | 32.42208 | 59.10600 | 39076 ft | 428 kts | 198° |
| 2026-05-06 02:36 | 32.36363 | 59.09606 | 39082 ft | 426 kts | 199° |
| 2026-05-06 02:36 | 32.30490 | 59.08610 | 39076 ft | 426 kts | 199° |
| 2026-05-06 02:37 | 32.24617 | 59.07613 | 39065 ft | 426 kts | 199° |
| 2026-05-06 02:37 | 32.18737 | 59.06618 | 39062 ft | 426 kts | 199° |
| 2026-05-06 02:38 | 32.12867 | 59.05625 | 39064 ft | 426 kts | 199° |
| 2026-05-06 02:38 | 32.07025 | 59.04638 | 39062 ft | 426 kts | 199° |
| 2026-05-06 02:39 | 32.01163 | 59.03650 | 39050 ft | 426 kts | 199° |
| 2026-05-06 02:39 | 31.95277 | 59.02658 | 39021 ft | 426 kts | 199° |
| 2026-05-06 02:40 | 31.89394 | 59.01668 | 39017 ft | 426 kts | 199° |
| 2026-05-06 02:40 | 31.83525 | 59.00682 | 39006 ft | 427 kts | 199° |
| 2026-05-06 02:41 | 31.77676 | 58.99701 | 39003 ft | 426 kts | 199° |
| 2026-05-06 02:41 | 31.71795 | 58.98715 | 38994 ft | 427 kts | 199° |
| 2026-05-06 02:42 | 31.65905 | 58.97729 | 38985 ft | 427 kts | 199° |
| 2026-05-06 02:42 | 31.60017 | 58.96745 | 38978 ft | 427 kts | 199° |
| 2026-05-06 02:43 | 31.54129 | 58.95763 | 38971 ft | 427 kts | 199° |
| 2026-05-06 02:43 | 31.48269 | 58.94788 | 38962 ft | 427 kts | 199° |
| 2026-05-06 02:44 | 31.42368 | 58.93807 | 38949 ft | 427 kts | 199° |
| 2026-05-06 02:44 | 31.36477 | 58.92829 | 38942 ft | 427 kts | 199° |
| 2026-05-06 02:45 | 31.30592 | 58.91852 | 38939 ft | 427 kts | 199° |
| 2026-05-06 02:45 | 31.24710 | 58.90877 | 38931 ft | 427 kts | 199° |
| 2026-05-06 02:46 | 31.18823 | 58.89903 | 38925 ft | 427 kts | 199° |
| 2026-05-06 02:46 | 31.12978 | 58.88937 | 38920 ft | 427 kts | 199° |
| 2026-05-06 02:47 | 31.07086 | 58.87964 | 38914 ft | 427 kts | 199° |
| 2026-05-06 02:47 | 31.01190 | 58.86992 | 38908 ft | 427 kts | 199° |
| 2026-05-06 02:48 | 30.95334 | 58.86027 | 38902 ft | 427 kts | 199° |
| 2026-05-06 02:48 | 30.89448 | 58.85059 | 38889 ft | 427 kts | 199° |
| 2026-05-06 02:49 | 30.83556 | 58.84091 | 38884 ft | 427 kts | 199° |
| 2026-05-06 02:49 | 30.77672 | 58.83125 | 38879 ft | 427 kts | 199° |
| 2026-05-06 02:50 | 30.71789 | 58.82161 | 38863 ft | 427 kts | 199° |
| 2026-05-06 02:50 | 30.65904 | 58.81198 | 38851 ft | 426 kts | 199° |
| 2026-05-06 02:51 | 30.60025 | 58.80236 | 38862 ft | 426 kts | 199° |
| 2026-05-06 02:51 | 30.54154 | 58.79276 | 38847 ft | 426 kts | 199° |
| 2026-05-06 02:52 | 30.48324 | 58.78324 | 38847 ft | 426 kts | 199° |
| 2026-05-06 02:52 | 30.42448 | 58.77366 | 38841 ft | 425 kts | 199° |
| 2026-05-06 02:53 | 30.36587 | 58.76411 | 38838 ft | 425 kts | 199° |
| 2026-05-06 02:53 | 30.30736 | 58.75458 | 38843 ft | 426 kts | 199° |
| 2026-05-06 02:54 | 30.24793 | 58.74484 | 38850 ft | 436 kts | 199° |
| 2026-05-06 02:54 | 30.18716 | 58.73494 | 38843 ft | 445 kts | 198° |
| 2026-05-06 02:55 | 30.12524 | 58.72493 | 38835 ft | 451 kts | 198° |
| 2026-05-06 02:55 | 30.06283 | 58.71488 | 38832 ft | 453 kts | 198° |
| 2026-05-06 02:56 | 30.00061 | 58.70485 | 38824 ft | 454 kts | 198° |
| 2026-05-06 02:56 | 29.93805 | 58.69475 | 38829 ft | 453 kts | 198° |
| 2026-05-06 02:57 | 29.87552 | 58.68474 | 38825 ft | 452 kts | 198° |
| 2026-05-06 02:57 | 29.81320 | 58.67485 | 38819 ft | 451 kts | 198° |
| 2026-05-06 02:58 | 29.75096 | 58.66497 | 38821 ft | 450 kts | 198° |
| 2026-05-06 02:58 | 29.68922 | 58.65516 | 38831 ft | 450 kts | 198° |
| 2026-05-06 02:59 | 29.62726 | 58.64532 | 38838 ft | 449 kts | 198° |
| 2026-05-06 02:59 | 29.56529 | 58.63549 | 38843 ft | 449 kts | 198° |
| 2026-05-06 03:00 | 29.50340 | 58.62569 | 38846 ft | 448 kts | 198° |
| 2026-05-06 03:00 | 29.45207 | 58.61757 | 38853 ft | 448 kts | 198° |
| 2026-05-06 03:01 | 29.38019 | 58.60621 | 38866 ft | 448 kts | 198° |
| 2026-05-06 03:01 | 29.31848 | 58.59647 | 38873 ft | 448 kts | 198° |
| 2026-05-06 03:02 | 29.26668 | 58.58831 | 38874 ft | 448 kts | 198° |
| 2026-05-06 03:02 | 29.20478 | 58.57856 | 38881 ft | 449 kts | 198° |
| 2026-05-06 03:03 | 29.14274 | 58.56881 | 38891 ft | 450 kts | 197° |
| 2026-05-06 03:03 | 29.08117 | 58.55914 | 38897 ft | 450 kts | 197° |
| 2026-05-06 03:04 | 29.01907 | 58.54940 | 38895 ft | 451 kts | 197° |
| 2026-05-06 03:04 | 28.95688 | 58.53967 | 38909 ft | 451 kts | 197° |
| 2026-05-06 03:05 | 28.89470 | 58.52994 | 38919 ft | 451 kts | 197° |
| 2026-05-06 03:05 | 28.83253 | 58.52023 | 38923 ft | 451 kts | 197° |
| 2026-05-06 03:06 | 28.77027 | 58.51051 | 38935 ft | 451 kts | 197° |
| 2026-05-06 03:06 | 28.70807 | 58.50082 | 38941 ft | 451 kts | 197° |
| 2026-05-06 03:07 | 28.64595 | 58.49115 | 38952 ft | 451 kts | 197° |
| 2026-05-06 03:07 | 28.58374 | 58.48147 | 38959 ft | 450 kts | 197° |
| 2026-05-06 03:08 | 28.52161 | 58.47183 | 38955 ft | 450 kts | 197° |
| 2026-05-06 03:08 | 28.45999 | 58.46226 | 38973 ft | 450 kts | 197° |
| 2026-05-06 03:09 | 28.39786 | 58.45262 | 38964 ft | 451 kts | 197° |
| 2026-05-06 03:09 | 28.33541 | 58.44295 | 38948 ft | 452 kts | 197° |
| 2026-05-06 03:09 | 28.30380 | 58.44004 | 38935 ft | 463 kts | 186° |
| 2026-05-06 03:10 | 28.27137 | 58.44501 | 38946 ft | 478 kts | 174° |
| 2026-05-06 03:10 | 28.23961 | 58.45781 | 38931 ft | 492 kts | 160° |
| 2026-05-06 03:10 | 28.21020 | 58.47743 | 38940 ft | 499 kts | 155° |
| 2026-05-06 03:11 | 28.15202 | 58.52065 | 38919 ft | 500 kts | 153° |
| 2026-05-06 03:11 | 28.09393 | 58.56408 | 38902 ft | 499 kts | 154° |
| 2026-05-06 03:12 | 28.03561 | 58.60667 | 38899 ft | 498 kts | 154° |
| 2026-05-06 03:12 | 27.97725 | 58.64871 | 38887 ft | 496 kts | 154° |
| 2026-05-06 03:13 | 27.91902 | 58.69051 | 38887 ft | 495 kts | 154° |
| 2026-05-06 03:13 | 27.86089 | 58.73222 | 38887 ft | 494 kts | 154° |
| 2026-05-06 03:14 | 27.80333 | 58.77351 | 38888 ft | 493 kts | 154° |
| 2026-05-06 03:14 | 27.74540 | 58.81502 | 38884 ft | 492 kts | 154° |
| 2026-05-06 03:15 | 27.68769 | 58.85632 | 38885 ft | 491 kts | 154° |
| 2026-05-06 03:15 | 27.62990 | 58.89762 | 38883 ft | 491 kts | 154° |
| 2026-05-06 03:16 | 27.57214 | 58.93885 | 38884 ft | 491 kts | 154° |
| 2026-05-06 03:16 | 27.51471 | 58.97978 | 38883 ft | 491 kts | 154° |
| 2026-05-06 03:17 | 27.45699 | 59.02088 | 38882 ft | 491 kts | 154° |
| 2026-05-06 03:17 | 27.39919 | 59.06198 | 38880 ft | 492 kts | 154° |
| 2026-05-06 03:18 | 27.34176 | 59.10283 | 38864 ft | 478 kts | 154° |
| 2026-05-06 03:18 | 27.28614 | 59.14234 | 38875 ft | 470 kts | 154° |
| 2026-05-06 03:19 | 27.23119 | 59.18122 | 38876 ft | 469 kts | 154° |
| 2026-05-06 03:19 | 27.17605 | 59.22020 | 38889 ft | 468 kts | 154° |
| 2026-05-06 03:20 | 27.09346 | 59.27854 | 38890 ft | 467 kts | 154° |
| 2026-05-06 03:20 | 27.03838 | 59.31741 | 38900 ft | 468 kts | 154° |
| 2026-05-06 03:21 | 26.98314 | 59.35635 | 38904 ft | 469 kts | 154° |
| 2026-05-06 03:21 | 26.92823 | 59.39501 | 38906 ft | 470 kts | 154° |
| 2026-05-06 03:22 | 26.87282 | 59.43395 | 38915 ft | 470 kts | 154° |
| 2026-05-06 03:22 | 26.81719 | 59.47285 | 38921 ft | 471 kts | 154° |
| 2026-05-06 03:23 | 26.76163 | 59.51168 | 38928 ft | 471 kts | 154° |
| 2026-05-06 03:23 | 26.70590 | 59.55060 | 38935 ft | 471 kts | 154° |
| 2026-05-06 03:24 | 26.65055 | 59.58921 | 38933 ft | 471 kts | 154° |
| 2026-05-06 03:24 | 26.59491 | 59.62802 | 38937 ft | 471 kts | 154° |
| 2026-05-06 03:25 | 26.53926 | 59.66683 | 38939 ft | 471 kts | 154° |
| 2026-05-06 03:25 | 26.48367 | 59.70555 | 38938 ft | 470 kts | 154° |
| 2026-05-06 03:26 | 26.42684 | 59.74104 | 38929 ft | 461 kts | 165° |
| 2026-05-06 03:26 | 26.36576 | 59.75774 | 38924 ft | 445 kts | 182° |
| 2026-05-06 03:27 | 26.30408 | 59.76121 | 38920 ft | 442 kts | 184° |
| 2026-05-06 03:27 | 26.24286 | 59.76400 | 38914 ft | 443 kts | 184° |
| 2026-05-06 03:28 | 26.18128 | 59.76716 | 38909 ft | 443 kts | 184° |
| 2026-05-06 03:28 | 26.11953 | 59.77059 | 38898 ft | 444 kts | 183° |
| 2026-05-06 03:29 | 26.05778 | 59.77410 | 38897 ft | 444 kts | 183° |
| 2026-05-06 03:29 | 25.99595 | 59.77762 | 38895 ft | 445 kts | 183° |
| 2026-05-06 03:30 | 25.93402 | 59.78113 | 38884 ft | 445 kts | 183° |
| 2026-05-06 03:30 | 25.87207 | 59.78464 | 38889 ft | 446 kts | 183° |
| 2026-05-06 03:31 | 25.81005 | 59.78814 | 38879 ft | 446 kts | 183° |
| 2026-05-06 03:31 | 25.74838 | 59.79162 | 38878 ft | 446 kts | 183° |
| 2026-05-06 03:32 | 25.68626 | 59.79512 | 38871 ft | 447 kts | 182° |
| 2026-05-06 03:32 | 25.62411 | 59.79863 | 38880 ft | 446 kts | 182° |
| 2026-05-06 03:33 | 25.56202 | 59.80211 | 38869 ft | 446 kts | 182° |
| 2026-05-06 03:33 | 25.50036 | 59.80558 | 38867 ft | 446 kts | 182° |
| 2026-05-06 03:34 | 25.43828 | 59.80907 | 38868 ft | 446 kts | 182° |
| 2026-05-06 03:34 | 25.37633 | 59.81255 | 38865 ft | 446 kts | 182° |
| 2026-05-06 03:35 | 25.31521 | 59.81602 | 38847 ft | 430 kts | 182° |
| 2026-05-06 03:35 | 25.25582 | 59.81937 | 38858 ft | 425 kts | 182° |
| 2026-05-06 03:36 | 25.19672 | 59.82263 | 38863 ft | 424 kts | 182° |
| 2026-05-06 03:36 | 25.13814 | 59.82588 | 38862 ft | 424 kts | 182° |
| 2026-05-06 03:37 | 25.07919 | 59.82916 | 38858 ft | 424 kts | 182° |
| 2026-05-06 03:37 | 25.02018 | 59.83245 | 38861 ft | 424 kts | 182° |
| 2026-05-06 03:38 | 24.96114 | 59.83574 | 38861 ft | 425 kts | 182° |
| 2026-05-06 03:38 | 24.90236 | 59.83901 | 38864 ft | 425 kts | 182° |
| 2026-05-06 03:39 | 24.84307 | 59.84231 | 38863 ft | 426 kts | 182° |
| 2026-05-06 03:39 | 24.78441 | 59.85556 | 38859 ft | 438 kts | 162° |
| 2026-05-06 03:40 | 24.72933 | 59.88541 | 38859 ft | 442 kts | 156° |
| 2026-05-06 03:40 | 24.67488 | 59.91711 | 38862 ft | 443 kts | 156° |
| 2026-05-06 03:41 | 24.62020 | 59.94830 | 38859 ft | 443 kts | 157° |
| 2026-05-06 03:41 | 24.56572 | 59.97892 | 38855 ft | 442 kts | 157° |
| 2026-05-06 03:42 | 24.51091 | 60.00965 | 38859 ft | 442 kts | 157° |
| 2026-05-06 03:42 | 24.45607 | 60.04040 | 38859 ft | 442 kts | 157° |
| 2026-05-06 03:43 | 24.42815 | 60.05399 | 38837 ft | 435 kts | 170° |
| 2026-05-06 03:43 | 24.39868 | 60.05801 | 38853 ft | 422 kts | 187° |
| 2026-05-06 03:43 | 24.36989 | 60.05265 | 38425 ft | 416 kts | 204° |
| 2026-05-06 03:43 | 24.34444 | 60.03870 | 37931 ft | 405 kts | 219° |
| 2026-05-06 03:44 | 24.32320 | 60.01885 | 37390 ft | 398 kts | 231° |
| 2026-05-06 03:44 | 24.30742 | 59.99469 | 36900 ft | 392 kts | 244° |
| 2026-05-06 03:44 | 24.29513 | 59.96810 | 36411 ft | 391 kts | 246° |
| 2026-05-06 03:44 | 24.28356 | 59.94122 | 35900 ft | 390 kts | 247° |
| 2026-05-06 03:45 | 24.27209 | 59.91415 | 35347 ft | 391 kts | 247° |
| 2026-05-06 03:45 | 24.26054 | 59.88705 | 34790 ft | 393 kts | 247° |
| 2026-05-06 03:45 | 24.24883 | 59.85988 | 34193 ft | 395 kts | 247° |
| 2026-05-06 03:45 | 24.23693 | 59.83257 | 33560 ft | 398 kts | 247° |
| 2026-05-06 03:46 | 24.22487 | 59.80508 | 32900 ft | 399 kts | 247° |
| 2026-05-06 03:46 | 24.21687 | 59.78692 | 32474 ft | 400 kts | 247° |
| 2026-05-06 03:46 | 24.20073 | 59.75036 | 31623 ft | 402 kts | 247° |
| 2026-05-06 03:46 | 24.18847 | 59.72263 | 30955 ft | 405 kts | 247° |
| 2026-05-06 03:47 | 24.17613 | 59.69471 | 30265 ft | 408 kts | 247° |
| 2026-05-06 03:47 | 24.16370 | 59.66662 | 29480 ft | 412 kts | 247° |
| 2026-05-06 03:47 | 24.15115 | 59.63825 | 28666 ft | 414 kts | 247° |
| 2026-05-06 03:47 | 24.14280 | 59.61942 | 28125 ft | 415 kts | 246° |
| 2026-05-06 03:48 | 24.12603 | 59.58156 | 27035 ft | 419 kts | 246° |
| 2026-05-06 03:48 | 24.11327 | 59.55279 | 26172 ft | 422 kts | 246° |
| 2026-05-06 03:48 | 24.10037 | 59.52370 | 25266 ft | 427 kts | 246° |
| 2026-05-06 03:48 | 24.09158 | 59.50392 | 24808 ft | 426 kts | 246° |
| 2026-05-06 03:49 | 24.07868 | 59.47492 | 23968 ft | 429 kts | 246° |
| 2026-05-06 03:49 | 24.06560 | 59.44553 | 23198 ft | 430 kts | 246° |
| 2026-05-06 03:49 | 24.05252 | 59.41616 | 22421 ft | 428 kts | 246° |
| 2026-05-06 03:49 | 24.03954 | 59.38704 | 21725 ft | 423 kts | 246° |
| 2026-05-06 03:50 | 24.02672 | 59.35826 | 21055 ft | 419 kts | 246° |
| 2026-05-06 03:50 | 24.01397 | 59.32968 | 20408 ft | 416 kts | 245° |
| 2026-05-06 03:50 | 24.00133 | 59.30135 | 19729 ft | 413 kts | 245° |
| 2026-05-06 03:50 | 23.98877 | 59.27322 | 19075 ft | 411 kts | 245° |
| 2026-05-06 03:51 | 23.97644 | 59.24558 | 18435 ft | 408 kts | 245° |
| 2026-05-06 03:51 | 23.96400 | 59.21772 | 17742 ft | 406 kts | 245° |
| 2026-05-06 03:51 | 23.95161 | 59.18998 | 17062 ft | 403 kts | 245° |
| 2026-05-06 03:51 | 23.93937 | 59.16260 | 16423 ft | 400 kts | 244° |
| 2026-05-06 03:52 | 23.92718 | 59.13531 | 15807 ft | 396 kts | 245° |
| 2026-05-06 03:52 | 23.91613 | 59.10794 | 15299 ft | 392 kts | 248° |
| 2026-05-06 03:52 | 23.90594 | 59.08042 | 14777 ft | 390 kts | 249° |
| 2026-05-06 03:52 | 23.89595 | 59.05284 | 14266 ft | 390 kts | 248° |
| 2026-05-06 03:53 | 23.88600 | 59.02552 | 13857 ft | 385 kts | 248° |
| 2026-05-06 03:53 | 23.87601 | 58.99839 | 13354 ft | 383 kts | 248° |
| 2026-05-06 03:53 | 23.86614 | 58.97185 | 12842 ft | 381 kts | 248° |
| 2026-05-06 03:53 | 23.85616 | 58.94513 | 12335 ft | 379 kts | 248° |
| 2026-05-06 03:54 | 23.84626 | 58.91872 | 11832 ft | 373 kts | 248° |
| 2026-05-06 03:54 | 23.83647 | 58.89263 | 11339 ft | 368 kts | 248° |
| 2026-05-06 03:54 | 23.82684 | 58.86697 | 10870 ft | 363 kts | 247° |
| 2026-05-06 03:54 | 23.81735 | 58.84159 | 10390 ft | 358 kts | 248° |
| 2026-05-06 03:55 | 23.80801 | 58.81649 | 9909 ft | 355 kts | 248° |
| 2026-05-06 03:55 | 23.79894 | 58.79206 | 9907 ft | 336 kts | 248° |
| 2026-05-06 03:55 | 23.79036 | 58.76899 | 9829 ft | 321 kts | 248° |
| 2026-05-06 03:55 | 23.78214 | 58.74692 | 9734 ft | 305 kts | 248° |
| 2026-05-06 03:56 | 23.77439 | 58.72611 | 9515 ft | 290 kts | 248° |
| 2026-05-06 03:56 | 23.76685 | 58.70590 | 9018 ft | 287 kts | 247° |
| 2026-05-06 03:56 | 23.75935 | 58.68578 | 8503 ft | 285 kts | 247° |
| 2026-05-06 03:56 | 23.75188 | 58.66581 | 8010 ft | 282 kts | 246° |
| 2026-05-06 03:57 | 23.74129 | 58.64812 | 7507 ft | 279 kts | 221° |
| 2026-05-06 03:57 | 23.72469 | 58.63766 | 7024 ft | 275 kts | 196° |
| 2026-05-06 03:57 | 23.70725 | 58.63529 | 6583 ft | 271 kts | 176° |
| 2026-05-06 03:57 | 23.68850 | 58.63694 | 6090 ft | 269 kts | 174° |
| 2026-05-06 03:58 | 23.67007 | 58.63884 | 5624 ft | 268 kts | 174° |
| 2026-05-06 03:58 | 23.65160 | 58.63995 | 5150 ft | 265 kts | 186° |
| 2026-05-06 03:58 | 23.63454 | 58.63298 | 4714 ft | 264 kts | 216° |
| 2026-05-06 03:58 | 23.62285 | 58.61818 | 4442 ft | 254 kts | 242° |
| 2026-05-06 03:59 | 23.61775 | 58.60074 | 4335 ft | 233 kts | 261° |
| 2026-05-06 03:59 | 23.61617 | 58.58367 | 4267 ft | 220 kts | 264° |
| 2026-05-06 03:59 | 23.61504 | 58.56727 | 4147 ft | 211 kts | 264° |
| 2026-05-06 03:59 | 23.61400 | 58.55171 | 4078 ft | 201 kts | 264° |
| 2026-05-06 04:00 | 23.61296 | 58.53685 | 4012 ft | 191 kts | 264° |
| 2026-05-06 04:00 | 23.61203 | 58.52294 | 3947 ft | 181 kts | 264° |
| 2026-05-06 04:00 | 23.61114 | 58.50956 | 3848 ft | 174 kts | 264° |
| 2026-05-06 04:00 | 23.61017 | 58.49654 | 3670 ft | 171 kts | 263° |
| 2026-05-06 04:01 | 23.60926 | 58.48364 | 3479 ft | 170 kts | 263° |
| 2026-05-06 04:01 | 23.60816 | 58.47092 | 3340 ft | 167 kts | 262° |
| 2026-05-06 04:01 | 23.60708 | 58.45835 | 3117 ft | 163 kts | 263° |
| 2026-05-06 04:01 | 23.60613 | 58.44637 | 2909 ft | 159 kts | 262° |
| 2026-05-06 04:02 | 23.60523 | 58.43454 | 2705 ft | 156 kts | 262° |
| 2026-05-06 04:02 | 23.60403 | 58.42249 | 2417 ft | 163 kts | 264° |
| 2026-05-06 04:02 | 23.60317 | 58.41004 | 2268 ft | 161 kts | 264° |
| 2026-05-06 04:02 | 23.60220 | 58.39792 | 2324 ft | 152 kts | 262° |
| 2026-05-06 04:03 | 23.60166 | 58.39051 | 2336 ft | 149 kts | 265° |
| 2026-05-06 04:03 | 23.60119 | 58.37512 | 2020 ft | 152 kts | 261° |
| 2026-05-06 04:03 | 23.59960 | 58.36383 | 1591 ft | 150 kts | 258° |
| 2026-05-06 04:03 | 23.59845 | 58.35231 | 1157 ft | 157 kts | 265° |
| 2026-05-06 04:04 | 23.59761 | 58.34064 | 858 ft | 151 kts | 264° |
| 2026-05-06 04:04 | 23.59665 | 58.32942 | 586 ft | 147 kts | 266° |
| 2026-05-06 04:04 | 23.59577 | 58.31845 | 348 ft | 142 kts | 267° |
| 2026-05-06 04:04 | 23.59502 | 58.30770 | 155 ft | 143 kts | 265° |
| 2026-05-06 04:05 | 23.59412 | 58.29710 | 48 ft | 136 kts | 267° |
| 2026-05-06 04:05 | 23.59342 | 58.28809 | 43 ft | 99 kts | 264° |
| 2026-05-06 04:05 | 23.59292 | 58.28227 | 43 ft | 55 kts | 265° |
| 2026-05-06 04:05 | 23.59271 | 58.27942 | 43 ft | 30 kts | 265° |
| 2026-05-06 04:06 | 23.59254 | 58.27718 | 43 ft | 29 kts | 265° |
| 2026-05-06 04:06 | 23.59237 | 58.27508 | 43 ft | 27 kts | 265° |
| 2026-05-06 04:06 | 23.59221 | 58.27312 | 41 ft | 25 kts | 265° |
| 2026-05-06 04:06 | 23.59206 | 58.27130 | 45 ft | 23 kts | 265° |
| 2026-05-06 04:07 | 23.59192 | 58.26958 | 41 ft | 22 kts | 264° |
| 2026-05-06 04:07 | 23.59177 | 58.26793 | 41 ft | 22 kts | 264° |
| 2026-05-06 04:07 | 23.59201 | 58.26697 | 44 ft | 12 kts | 337° |
| 2026-05-06 04:07 | 23.59281 | 58.26688 | 40 ft | 12 kts | 356° |
| 2026-05-06 04:08 | 23.59363 | 58.26681 | 43 ft | 12 kts | 356° |
| 2026-05-06 04:08 | 23.59443 | 58.26686 | 44 ft | 12 kts | 28° |
| 2026-05-06 04:08 | 23.59469 | 58.26765 | 44 ft | 12 kts | 88° |
| 2026-05-06 04:08 | 23.59475 | 58.26852 | 44 ft | 12 kts | 84° |
| 2026-05-06 04:09 | 23.59482 | 58.26937 | 41 ft | 11 kts | 85° |
| 2026-05-06 04:09 | 23.59489 | 58.27021 | 43 ft | 11 kts | 85° |
| 2026-05-06 04:09 | 23.59495 | 58.27102 | 43 ft | 11 kts | 85° |
| 2026-05-06 04:09 | 23.59502 | 58.27180 | 44 ft | 10 kts | 85° |
| 2026-05-06 04:10 | 23.59508 | 58.27256 | 44 ft | 10 kts | 85° |
| 2026-05-06 04:10 | 23.59514 | 58.27331 | 44 ft | 10 kts | 84° |
| 2026-05-06 04:10 | 23.59521 | 58.27403 | 44 ft | 9 kts | 84° |
| 2026-05-06 04:10 | 23.59527 | 58.27473 | 44 ft | 9 kts | 84° |
| 2026-05-06 04:11 | 23.59532 | 58.27542 | 44 ft | 9 kts | 85° |
| 2026-05-06 04:11 | 23.59538 | 58.27608 | 44 ft | 9 kts | 85° |
| 2026-05-06 04:11 | 23.59545 | 58.27672 | 44 ft | 8 kts | 70° |
| 2026-05-06 04:11 | 23.59588 | 58.27720 | 44 ft | 10 kts | 41° |
| 2026-05-06 04:12 | 23.59638 | 58.27766 | 44 ft | 6 kts | 39° |
| 2026-05-06 04:12 | 23.59670 | 58.27794 | 44 ft | 6 kts | 39° |
| 2026-05-06 04:12 | 23.59703 | 58.27824 | 44 ft | 6 kts | 39° |
| 2026-05-06 04:12 | 23.59739 | 58.27855 | 43 ft | 7 kts | 39° |
| 2026-05-06 04:13 | 23.59776 | 58.27889 | 42 ft | 7 kts | 39° |
| 2026-05-06 04:13 | 23.59814 | 58.27924 | 44 ft | 7 kts | 40° |
| 2026-05-06 04:13 | 23.59838 | 58.27972 | 44 ft | 8 kts | 89° |
| 2026-05-06 04:13 | 23.59839 | 58.28032 | 44 ft | 8 kts | 88° |
| 2026-05-06 04:14 | 23.59844 | 58.28094 | 44 ft | 8 kts | 82° |
| 2026-05-06 04:14 | 23.59820 | 58.28148 | 44 ft | 9 kts | 153° |
| 2026-05-06 04:14 | 23.59767 | 58.28131 | 44 ft | 8 kts | 232° |
| 2026-05-06 04:14 | 23.59756 | 58.28069 | 44 ft | 7 kts | 265° |
| 2026-05-06 04:15 | 23.59754 | 58.28042 | 41 ft | 6 kts | 266° |
| 2026-05-06 04:15 | 23.59753 | 58.28028 | 43 ft | 0 kts | 266° |
| 2026-05-06 04:16 | 23.59753 | 58.28026 | 44 ft | 2 kts | 266° |
| 2026-05-06 04:16 | 23.59745 | 58.27988 | 44 ft | 10 kts | 239° |
| 2026-05-06 04:16 | 23.59670 | 58.27919 | 43 ft | 11 kts | 220° |
| 2026-05-06 04:16 | 23.59611 | 58.27864 | 43 ft | 11 kts | 220° |
| 2026-05-06 04:17 | 23.59556 | 58.27802 | 44 ft | 11 kts | 247° |
| 2026-05-06 04:17 | 23.59546 | 58.27715 | 44 ft | 12 kts | 264° |
| 2026-05-06 04:17 | 23.59539 | 58.27625 | 44 ft | 12 kts | 265° |
| 2026-05-06 04:17 | 23.59532 | 58.27531 | 44 ft | 13 kts | 265° |
| 2026-05-06 04:18 | 23.59524 | 58.27435 | 39 ft | 13 kts | 264° |
| 2026-05-06 04:18 | 23.59574 | 58.27374 | 44 ft | 13 kts | 355° |
| 2026-05-06 04:18 | 23.59664 | 58.27367 | 44 ft | 13 kts | 355° |
| 2026-05-06 04:18 | 23.59751 | 58.27358 | 43 ft | 13 kts | 355° |
| 2026-05-06 04:19 | 23.59837 | 58.27350 | 44 ft | 12 kts | 355° |
| 2026-05-06 04:19 | 23.59920 | 58.27342 | 44 ft | 12 kts | 355° |
| 2026-05-06 04:19 | 23.60002 | 58.27334 | 44 ft | 12 kts | 355° |
| 2026-05-06 04:19 | 23.60081 | 58.27327 | 44 ft | 11 kts | 355° |
| 2026-05-06 04:20 | 23.60158 | 58.27320 | 44 ft | 11 kts | 355° |
| 2026-05-06 04:20 | 23.60233 | 58.27313 | 44 ft | 11 kts | 355° |
| 2026-05-06 04:20 | 23.60305 | 58.27306 | 44 ft | 10 kts | 355° |
| 2026-05-06 04:20 | 23.60375 | 58.27299 | 44 ft | 10 kts | 355° |
| 2026-05-06 04:21 | 23.60441 | 58.27312 | 44 ft | 10 kts | 40° |
| 2026-05-06 04:21 | 23.60456 | 58.27384 | 44 ft | 10 kts | 84° |
| 2026-05-06 04:21 | 23.60462 | 58.27457 | 44 ft | 10 kts | 85° |
| 2026-05-06 04:21 | 23.60468 | 58.27529 | 44 ft | 9 kts | 85° |
| 2026-05-06 04:22 | 23.60475 | 58.27610 | 42 ft | 13 kts | 84° |
| 2026-05-06 04:22 | 23.60483 | 58.27714 | 44 ft | 14 kts | 85° |
| 2026-05-06 04:22 | 23.60491 | 58.27815 | 44 ft | 13 kts | 85° |
| 2026-05-06 04:23 | 23.60507 | 58.28008 | 44 ft | 12 kts | 84° |
| 2026-05-06 04:23 | 23.60515 | 58.28101 | 44 ft | 12 kts | 84° |
| 2026-05-06 04:23 | 23.60523 | 58.28191 | 44 ft | 12 kts | 85° |
| 2026-05-06 04:23 | 23.60530 | 58.28279 | 44 ft | 12 kts | 85° |
| 2026-05-06 04:24 | 23.60537 | 58.28366 | 44 ft | 11 kts | 85° |
| 2026-05-06 04:24 | 23.60543 | 58.28448 | 44 ft | 11 kts | 85° |
| 2026-05-06 04:24 | 23.60550 | 58.28530 | 44 ft | 11 kts | 85° |
| 2026-05-06 04:24 | 23.60555 | 58.28608 | 44 ft | 10 kts | 85° |
| 2026-05-06 04:25 | 23.60561 | 58.28685 | 44 ft | 10 kts | 85° |
| 2026-05-06 04:25 | 23.60567 | 58.28759 | 44 ft | 10 kts | 85° |
| 2026-05-06 04:25 | 23.60559 | 58.28830 | 42 ft | 9 kts | 123° |
| 2026-05-06 04:25 | 23.60495 | 58.28846 | 44 ft | 10 kts | 176° |
| 2026-05-06 04:26 | 23.60451 | 58.28851 | 44 ft | 0 kts | 162° |
| 2026-05-06 04:26 | 23.60448 | 58.28853 | 44 ft | 2 kts | 146° |
| 2026-05-06 04:27 | 23.60448 | 58.28895 | 44 ft | 7 kts | 82° |
| 2026-05-06 04:27 | 23.60451 | 58.28923 | 44 ft | 1 kts | 85° |
| 2026-05-06 04:27 | 23.60451 | 58.28931 | 44 ft | 1 kts | 85° |
| 2026-05-06 04:27 | 23.60452 | 58.28936 | 44 ft | 0 kts | 85° |